Time;durP1;ratioP1;P1;durP2;ratioP2;P2;SDS_P1;SDS_P2;PMS_P1;PMS_P2;Temp;Humidity;BMP_temperature;BMP_pressure;BME280_temperature;BME280_humidity;BME280_pressure;Samples;Min_cycle;Max_cycle;Signal;HPM_P1;HPM_P2
2021/12/08 00:00:54;;;;;;;1.80;1.63;;;14.00;52.50;14.90;98706.00;;;;4969571;28;20177;-40
2021/12/08 00:03:21;;;;;;;1.70;1.60;;;14.30;52.30;15.00;98704.00;;;;4970672;28;20272;-40
2021/12/08 00:05:47;;;;;;;1.90;1.70;;;14.60;52.20;15.10;98700.00;;;;4970578;28;20183;-40
2021/12/08 00:08:17;;;;;;;2.00;1.77;;;14.80;51.70;15.20;98685.00;;;;4970160;28;20177;-39
2021/12/08 00:13:17;;;;;;;1.93;1.73;;;15.20;51.30;15.50;98706.00;;;;4970332;28;20193;-39
2021/12/08 00:15:46;;;;;;;1.67;1.57;;;15.30;51.40;15.60;98701.00;;;;4970748;28;20483;-39
2021/12/08 00:18:21;;;;;;;1.80;1.70;;;15.40;51.40;15.70;98697.00;;;;4970840;28;20194;-39
2021/12/08 00:20:47;;;;;;;2.00;1.80;;;15.40;51.40;15.80;98696.00;;;;4970448;28;20180;-40
2021/12/08 00:23:15;;;;;;;2.50;1.70;;;15.50;51.50;15.80;98693.00;;;;4970286;28;20231;-40
2021/12/08 00:25:40;;;;;;;1.90;1.70;;;15.50;51.50;15.90;98690.00;;;;4970469;28;20169;-39
2021/12/08 00:28:06;;;;;;;2.50;1.63;;;15.50;51.50;15.90;98696.00;;;;4970298;28;20180;-39
2021/12/08 00:30:32;;;;;;;2.37;1.87;;;15.50;51.50;16.00;98686.00;;;;4970160;28;20205;-40
2021/12/08 00:32:59;;;;;;;1.70;1.60;;;15.50;51.60;16.00;98684.00;;;;4970160;28;20189;-40
2021/12/08 00:35:27;;;;;;;1.73;1.63;;;15.50;51.80;16.00;98682.00;;;;4969879;28;20288;-40
2021/12/08 00:37:53;;;;;;;2.33;2.00;;;15.40;51.90;16.00;98682.00;;;;4970092;28;20660;-40
2021/12/08 00:40:18;;;;;;;2.30;1.50;;;15.40;51.90;16.00;98685.00;;;;4970453;28;20173;-39
2021/12/08 00:42:45;;;;;;;2.53;1.63;;;15.40;52.10;16.00;98680.00;;;;4969844;28;20225;-40
2021/12/08 00:45:11;;;;;;;1.80;1.70;;;15.40;52.20;16.00;98672.00;;;;4969853;28;20264;-40
2021/12/08 00:47:37;;;;;;;1.70;1.60;;;15.30;52.10;16.00;98688.00;;;;4969729;28;20185;-39
2021/12/08 00:50:08;;;;;;;2.10;1.77;;;15.30;52.20;16.00;98692.00;;;;4969520;28;20200;-40
2021/12/08 00:52:33;;;;;;;2.37;1.60;;;15.30;52.30;16.00;98671.00;;;;4969742;28;20428;-39
2021/12/08 00:55:00;;;;;;;2.17;1.60;;;15.20;52.30;16.00;98699.00;;;;4970079;28;20427;-40
2021/12/08 00:57:25;;;;;;;1.77;1.67;;;15.20;52.30;16.00;98686.00;;;;4970041;28;20203;-40
2021/12/08 00:59:51;;;;;;;1.90;1.60;;;15.20;52.50;16.00;98688.00;;;;4969976;28;20594;-39
2021/12/08 01:02:17;;;;;;;2.57;1.87;;;15.20;52.60;16.00;98686.00;;;;4969199;28;20200;-40
2021/12/08 01:04:42;;;;;;;1.80;1.70;;;15.20;52.60;16.00;98696.00;;;;4969205;28;20259;-39
2021/12/08 01:07:08;;;;;;;1.40;1.30;;;15.20;52.70;16.00;98700.00;;;;4969473;28;20187;-40
2021/12/08 01:09:34;;;;;;;1.60;1.50;;;15.10;52.70;16.00;98692.00;;;;4969340;28;20248;-39
2021/12/08 01:12:02;;;;;;;1.80;1.70;;;15.20;52.70;15.90;98681.00;;;;4968175;28;20267;-40
2021/12/08 01:14:32;;;;;;;1.80;1.67;;;15.10;52.70;15.90;98690.00;;;;4969479;28;20169;-39
2021/12/08 01:16:58;;;;;;;1.80;1.60;;;15.10;52.80;15.90;98698.00;;;;4968698;28;20173;-40
2021/12/08 01:19:25;;;;;;;2.03;1.60;;;15.00;52.60;15.90;98701.00;;;;4969560;28;20532;-40
2021/12/08 01:21:50;;;;;;;2.67;1.70;;;15.00;52.80;15.90;98705.00;;;;4969524;28;20177;-39
2021/12/08 01:24:16;;;;;;;1.77;1.50;;;15.00;52.90;15.90;98710.00;;;;4969513;28;20636;-40
2021/12/08 01:26:42;;;;;;;1.90;1.80;;;14.90;52.80;15.90;98702.00;;;;4969432;28;20169;-40
2021/12/08 01:29:08;;;;;;;2.00;1.67;;;14.90;52.80;15.80;98700.00;;;;4968605;28;20177;-40
2021/12/08 01:31:36;;;;;;;1.53;1.43;;;14.90;52.90;15.80;98697.00;;;;4968917;28;20209;-40
2021/12/08 01:34:02;;;;;;;1.83;1.73;;;14.90;52.90;15.80;98700.00;;;;4969235;28;20259;-39
2021/12/08 01:36:27;;;;;;;1.70;1.60;;;14.90;53.00;15.80;98709.00;;;;4968747;28;20169;-40
2021/12/08 01:38:53;;;;;;;1.50;1.40;;;14.80;52.90;15.80;98704.00;;;;4968774;28;20243;-40
2021/12/08 01:41:21;;;;;;;1.60;1.50;;;14.80;53.00;15.80;98705.00;;;;4968339;28;20176;-39
2021/12/08 01:46:35;;;;;;;1.70;1.60;;;14.80;53.10;15.70;98685.00;;;;4958646;28;20218;-39
2021/12/08 01:49:02;;;;;;;1.70;1.60;;;14.80;53.20;15.70;98687.00;;;;4969027;28;20177;-39
2021/12/08 01:51:27;;;;;;;1.60;1.50;;;14.70;53.20;15.70;98693.00;;;;4968124;28;20303;-40
2021/12/08 01:53:55;;;;;;;1.43;1.33;;;14.70;53.10;15.70;98680.00;;;;4968751;28;20196;-40
2021/12/08 01:56:22;;;;;;;1.70;1.57;;;14.70;53.40;15.60;98710.00;;;;4968683;28;20185;-40
2021/12/08 01:58:48;;;;;;;1.70;1.60;;;14.70;53.40;15.60;98716.00;;;;4968454;28;20173;-40
2021/12/08 02:01:18;;;;;;;1.77;1.67;;;14.70;53.30;15.60;98709.00;;;;4968707;28;20569;-40
2021/12/08 02:03:44;;;;;;;1.70;1.60;;;14.60;53.20;15.60;98628.00;;;;4968392;28;20618;-40
2021/12/08 02:06:11;;;;;;;1.70;1.60;;;14.60;53.20;15.50;98703.00;;;;4968407;28;20202;-40
2021/12/08 02:08:37;;;;;;;1.83;1.60;;;14.60;53.30;15.50;98713.00;;;;4968903;28;20177;-40
2021/12/08 02:11:04;;;;;;;1.93;1.60;;;14.60;53.40;15.50;98685.00;;;;4968322;28;20281;-40
2021/12/08 02:13:36;;;;;;;1.60;1.50;;;14.50;53.50;15.50;98708.00;;;;4968164;28;20188;-40
2021/12/08 02:16:02;;;;;;;1.60;1.50;;;14.60;53.40;15.50;98703.00;;;;4968656;28;20149;-40
2021/12/08 02:18:28;;;;;;;1.70;1.60;;;14.50;53.50;15.50;98709.00;;;;4967987;28;20601;-40
2021/12/08 02:20:59;;;;;;;1.50;1.40;;;14.50;53.30;15.40;98710.00;;;;4968285;28;20248;-40
2021/12/08 02:23:24;;;;;;;1.83;1.73;;;14.50;53.50;15.40;98713.00;;;;4968169;28;20304;-40
2021/12/08 02:25:50;;;;;;;1.50;1.40;;;14.50;53.50;15.40;98717.00;;;;4968793;28;20260;-40
2021/12/08 02:28:17;;;;;;;1.47;1.37;;;14.50;53.40;15.40;98719.00;;;;4968161;28;20181;-40
2021/12/08 02:47:08;;;;;;;1.57;1.47;;;14.30;53.50;15.20;98732.00;;;;4968299;28;20199;-40
2021/12/08 02:49:35;;;;;;;1.87;1.77;;;14.30;53.50;15.20;98729.00;;;;4968193;28;20344;-40
2021/12/08 02:52:01;;;;;;;1.40;1.30;;;14.30;53.80;15.20;98725.00;;;;4967970;28;20173;-40
2021/12/08 02:54:32;;;;;;;1.70;1.60;;;14.30;53.60;15.20;98732.00;;;;4968077;28;20469;-40
2021/12/08 02:56:58;;;;;;;1.60;1.50;;;14.30;53.60;15.20;98720.00;;;;4966550;28;20690;-40
2021/12/08 02:59:24;;;;;;;1.73;1.63;;;14.30;53.60;15.10;98721.00;;;;4968237;28;20173;-40
2021/12/08 03:01:49;;;;;;;1.60;1.50;;;14.20;53.70;14.90;98730.00;;;;4967445;28;20173;-40
2021/12/08 03:04:15;;;;;;;1.50;1.40;;;14.20;53.60;15.10;98728.00;;;;4967846;28;20173;-40
2021/12/08 03:06:41;;;;;;;1.60;1.50;;;14.20;53.60;15.10;98733.00;;;;4968154;28;20173;-40
2021/12/08 03:09:07;;;;;;;1.57;1.47;;;14.20;53.70;15.10;98738.00;;;;4967289;28;20594;-40
2021/12/08 03:11:33;;;;;;;1.70;1.60;;;14.20;53.70;15.10;98745.00;;;;4967465;28;20754;-39
2021/12/08 03:14:04;;;;;;;1.63;1.47;;;14.20;53.70;15.10;98751.00;;;;4968426;28;20555;-40
2021/12/08 03:16:30;;;;;;;1.50;1.40;;;14.20;53.70;15.10;98749.00;;;;4968368;28;20244;-40
2021/12/08 03:18:55;;;;;;;1.97;1.70;;;14.20;53.90;15.00;98751.00;;;;4966752;28;20257;-40
2021/12/08 03:21:28;;;;;;;1.50;1.40;;;14.20;53.90;15.00;98744.00;;;;4967405;28;20205;-40
2021/12/08 03:24:39;;;;;;;1.70;1.60;;;14.10;53.50;15.00;98749.00;;;;4968113;28;20280;-39
2021/12/08 03:27:34;;;;;;;1.60;1.50;;;14.10;53.60;15.00;98750.00;;;;4964772;28;20232;-40
2021/12/08 03:29:47;;;;;;;1.37;1.27;;;14.10;53.50;15.00;98752.00;;;;4963850;28;20188;-40
2021/12/08 03:32:16;;;;;;;1.50;1.40;;;14.10;53.50;14.90;98738.00;;;;4967492;28;20227;-40
2021/12/08 03:34:51;;;;;;;1.60;1.50;;;14.10;53.70;15.00;98738.00;;;;4967680;28;20177;-40
2021/12/08 03:37:27;;;;;;;1.50;1.40;;;14.10;53.60;14.90;98746.00;;;;4971209;28;20181;-40
2021/12/08 03:39:53;;;;;;;1.60;1.50;;;14.10;53.70;14.90;98750.00;;;;4971148;28;20257;-40
2021/12/08 03:42:21;;;;;;;1.53;1.40;;;14.00;53.60;14.90;98744.00;;;;4970919;28;20197;-40
2021/12/08 03:44:48;;;;;;;1.50;1.40;;;14.00;53.60;14.90;98748.00;;;;4970750;28;20204;-40
2021/12/08 03:47:17;;;;;;;1.60;1.50;;;14.00;53.70;14.90;98752.00;;;;4970625;28;20635;-40
2021/12/08 03:49:45;;;;;;;1.43;1.30;;;14.00;53.70;14.90;98758.00;;;;4971061;28;20187;-39
2021/12/08 03:52:10;;;;;;;1.47;1.37;;;14.00;53.70;14.90;98772.00;;;;4970368;28;20185;-39
2021/12/08 03:54:36;;;;;;;1.50;1.40;;;14.00;53.70;14.90;98770.00;;;;4971123;28;20228;-40
2021/12/08 03:57:03;;;;;;;1.43;1.33;;;14.00;53.60;14.90;98780.00;;;;4970883;28;20177;-39
2021/12/08 03:59:28;;;;;;;2.90;1.33;;;13.90;53.60;14.80;98781.00;;;;4970783;28;20177;-40
2021/12/08 04:01:54;;;;;;;1.50;1.40;;;14.00;53.60;14.80;98780.00;;;;4970071;28;20551;-40
2021/12/08 04:04:25;;;;;;;1.40;1.30;;;13.90;53.70;14.80;98778.00;;;;4970765;28;20184;-40
2021/12/08 04:06:52;;;;;;;1.73;1.50;;;13.90;53.70;14.80;98778.00;;;;4970765;28;20301;-39
2021/12/08 04:11:54;;;;;;;1.40;1.30;;;13.90;53.80;14.80;98782.00;;;;4968992;28;20184;-40
2021/12/08 04:14:22;;;;;;;1.87;1.60;;;13.90;53.80;14.80;98785.00;;;;4970409;28;20180;-40
2021/12/08 04:16:58;;;;;;;1.53;1.43;;;13.90;53.80;14.80;98786.00;;;;4964795;28;20268;-40
2021/12/08 04:19:23;;;;;;;1.47;1.20;;;13.90;53.80;14.70;98780.00;;;;4968462;28;20662;-40
2021/12/08 04:21:51;;;;;;;1.30;1.20;;;13.90;53.80;14.80;98776.00;;;;4969264;28;20176;-40
2021/12/08 04:24:17;;;;;;;1.50;1.40;;;13.80;53.70;14.70;98784.00;;;;4970309;28;20176;-40
2021/12/08 04:26:50;;;;;;;1.80;1.33;;;13.80;53.50;14.80;98780.00;;;;4970186;28;20169;-40
2021/12/08 04:29:17;;;;;;;1.40;1.30;;;13.90;53.60;14.80;98783.00;;;;4969117;28;20309;-40
2021/12/08 04:31:43;;;;;;;1.00;1.00;;;14.10;53.60;14.90;98781.00;;;;4968048;28;20201;-39
2021/12/08 04:34:17;;;;;;;2.00;1.30;;;14.30;53.40;15.00;98778.00;;;;4970090;28;20180;-39
2021/12/08 04:36:47;;;;;;;1.67;1.37;;;14.50;53.10;15.10;98763.00;;;;4970192;28;20161;-40
2021/12/08 04:39:27;;;;;;;1.43;1.33;;;14.70;52.90;15.20;98769.00;;;;4968275;28;20176;-40
2021/12/08 04:41:59;;;;;;;1.60;1.50;;;15.10;52.70;15.40;98758.00;;;;4969687;28;20149;-40
2021/12/08 04:44:37;;;;;;;1.27;1.27;;;15.40;52.30;15.60;98764.00;;;;4969305;28;20816;-40
2021/12/08 04:48:02;;;;;;;1.30;1.30;;;15.60;52.10;15.70;98762.00;;;;4968358;28;20188;-40
2021/12/08 04:52:57;;;;;;;1.20;1.10;;;15.70;52.00;15.90;98760.00;;;;4968340;28;20196;-40
2021/12/08 05:08:54;;;;;;;1.30;1.20;;;15.70;52.50;16.20;98775.00;;;;4969821;28;20204;-40
2021/12/08 05:11:30;;;;;;;1.23;1.23;;;15.80;52.60;16.20;98788.00;;;;4968752;28;20220;-40
2021/12/08 05:14:08;;;;;;;1.13;1.10;;;15.70;52.60;16.30;98791.00;;;;4969148;28;20204;-39
2021/12/08 05:16:34;;;;;;;1.10;1.10;;;15.70;52.80;16.30;98785.00;;;;4969134;28;20183;-40
2021/12/08 05:19:11;;;;;;;1.40;1.30;;;15.70;52.80;16.30;98783.00;;;;4969021;28;20177;-40
2021/12/08 05:21:52;;;;;;;1.20;1.10;;;15.70;52.80;16.30;98788.00;;;;4968801;28;20232;-39
2021/12/08 05:24:36;;;;;;;1.47;1.30;;;15.70;52.80;16.30;98798.00;;;;4969446;28;20164;-39
2021/12/08 05:27:14;;;;;;;1.20;1.10;;;15.70;52.90;16.30;98781.00;;;;4968938;28;20251;-40
2021/12/08 05:29:50;;;;;;;4.37;1.17;;;15.60;52.90;16.30;98794.00;;;;4969588;28;20196;-40
2021/12/08 05:32:16;;;;;;;1.00;1.00;;;15.60;53.00;16.30;98804.00;;;;4969101;28;20242;-40
2021/12/08 05:34:42;;;;;;;1.37;1.27;;;15.60;53.10;16.30;98805.00;;;;4968965;28;20173;-40
2021/12/08 05:37:09;;;;;;;1.13;1.03;;;15.60;53.10;16.30;98800.00;;;;4967407;28;20169;-40
2021/12/08 05:39:35;;;;;;;1.30;1.20;;;15.60;53.10;16.30;98817.00;;;;4968976;28;20247;-40
2021/12/08 05:42:08;;;;;;;1.37;1.27;;;15.60;53.10;16.20;98824.00;;;;4968485;28;20206;-39
2021/12/08 05:44:34;;;;;;;0.90;0.90;;;15.50;53.10;16.20;98764.00;;;;4968673;28;20176;-39
2021/12/08 05:47:06;;;;;;;1.40;1.33;;;15.50;53.20;16.20;98826.00;;;;4960152;28;20189;-39
2021/12/08 05:49:32;;;;;;;1.47;1.37;;;15.50;53.30;16.20;98821.00;;;;4967209;28;20180;-39
2021/12/08 05:51:58;;;;;;;1.47;1.23;;;15.50;53.30;16.20;98829.00;;;;4967835;28;20205;-39
2021/12/08 05:54:35;;;;;;;2.03;1.37;;;15.40;53.30;16.20;98826.00;;;;4967934;28;20436;-39
2021/12/08 05:57:08;;;;;;;1.40;1.30;;;15.40;53.40;16.20;98825.00;;;;4952324;28;20168;-39
2021/12/08 05:59:34;;;;;;;0.97;0.97;;;15.40;53.50;16.20;98817.00;;;;4968043;28;20164;-40
2021/12/08 06:02:13;;;;;;;1.17;1.10;;;15.30;53.60;16.20;98813.00;;;;4967820;28;20185;-39
2021/12/08 06:04:39;;;;;;;1.10;1.10;;;15.40;53.70;16.20;98823.00;;;;4968849;28;20639;-39
2021/12/08 06:07:05;;;;;;;1.70;1.20;;;15.30;53.60;16.10;98818.00;;;;4968608;28;20228;-39
2021/12/08 06:09:31;;;;;;;1.47;1.37;;;15.30;53.70;16.10;98817.00;;;;4966569;28;20201;-39
2021/12/08 06:11:57;;;;;;;1.00;1.00;;;15.30;53.70;16.10;98811.00;;;;4968043;28;20275;-38
2021/12/08 06:14:31;;;;;;;1.10;1.10;;;15.20;53.60;16.10;98819.00;;;;4967063;28;20200;-39
2021/12/08 06:16:56;;;;;;;1.40;1.30;;;15.20;53.70;16.10;98815.00;;;;4967628;28;20658;-39
2021/12/08 06:19:22;;;;;;;1.20;1.10;;;15.20;53.70;16.10;98806.00;;;;4966661;28;20205;-39
2021/12/08 06:21:49;;;;;;;1.57;1.40;;;15.20;53.70;16.00;98817.00;;;;4967754;28;20573;-41
2021/12/08 06:24:15;;;;;;;2.27;1.50;;;15.20;53.80;16.00;98806.00;;;;4968115;28;20176;-40
2021/12/08 06:26:41;;;;;;;1.50;1.30;;;15.10;53.80;16.00;98819.00;;;;4968019;28;20184;-40
2021/12/08 06:29:08;;;;;;;1.07;1.00;;;15.10;53.90;16.00;98832.00;;;;4967312;28;20199;-40
2021/12/08 06:31:35;;;;;;;1.30;1.20;;;15.10;54.00;16.00;98823.00;;;;4967632;28;20197;-40
2021/12/08 06:34:00;;;;;;;0.97;0.97;;;15.00;53.90;16.00;98826.00;;;;4967830;28;20240;-40
2021/12/08 06:36:36;;;;;;;1.20;1.10;;;15.00;53.90;15.90;98833.00;;;;4966781;28;20173;-39
2021/12/08 06:39:11;;;;;;;1.43;1.33;;;15.00;54.00;15.90;98840.00;;;;4967569;28;20172;-39
2021/12/08 06:41:41;;;;;;;2.03;1.40;;;15.00;54.00;15.90;98835.00;;;;4967722;28;20224;-41
2021/12/08 06:44:20;;;;;;;1.30;1.20;;;14.90;54.00;15.90;98831.00;;;;4967561;28;20683;-40
2021/12/08 06:46:46;;;;;;;1.40;1.30;;;14.90;54.00;15.90;98831.00;;;;4968045;28;20880;-39
2021/12/08 06:49:13;;;;;;;1.40;1.30;;;14.90;54.00;15.80;98845.00;;;;4968786;28;20296;-39
2021/12/08 06:51:50;;;;;;;1.63;1.37;;;14.90;54.00;15.80;98845.00;;;;4967438;28;20363;-39
2021/12/08 06:54:31;;;;;;;0.80;0.80;;;14.90;54.00;15.80;98846.00;;;;4967924;28;20165;-40
2021/12/08 06:57:01;;;;;;;0.87;0.87;;;14.80;53.90;15.80;98854.00;;;;4968029;28;20208;-40
2021/12/08 06:59:33;;;;;;;1.40;1.30;;;14.80;54.10;15.70;98861.00;;;;4968083;28;20162;-40
2021/12/08 07:02:13;;;;;;;1.17;1.13;;;14.80;54.00;15.70;98870.00;;;;4967855;28;20527;-40
2021/12/08 07:04:56;;;;;;;1.60;1.50;;;14.80;54.20;15.70;98869.00;;;;4967162;28;20211;-40
2021/12/08 07:07:27;;;;;;;1.13;1.10;;;14.80;54.10;15.70;98869.00;;;;4958673;28;20870;-40
2021/12/08 07:10:11;;;;;;;1.77;1.30;;;14.80;54.20;15.70;98872.00;;;;4969498;28;20237;-40
2021/12/08 07:12:42;;;;;;;2.00;1.40;;;14.80;54.40;15.70;98879.00;;;;4971582;28;20216;-40
2021/12/08 07:15:36;;;;;;;2.37;1.13;;;14.80;54.20;15.70;98894.00;;;;4971354;28;20199;-40
2021/12/08 07:18:09;;;;;;;1.50;1.20;;;14.80;54.30;15.60;98889.00;;;;4970372;28;20599;-40
2021/12/08 07:20:47;;;;;;;2.83;1.37;;;14.80;54.60;15.60;98882.00;;;;4971631;28;20180;-40
2021/12/08 07:23:36;;;;;;;4.83;1.73;;;14.80;55.00;15.60;98899.00;;;;4971614;28;20197;-40
2021/12/08 07:26:09;;;;;;;1.77;1.50;;;14.70;55.20;15.60;98906.00;;;;4970944;28;20247;-40
2021/12/08 07:28:34;;;;;;;2.83;1.57;;;14.70;55.10;15.60;98893.00;;;;4971037;28;20223;-41
2021/12/08 07:31:09;;;;;;;2.17;1.50;;;14.70;55.40;15.60;98901.00;;;;4970764;28;20205;-39
2021/12/08 07:33:35;;;;;;;5.57;1.60;;;14.70;55.40;15.60;98900.00;;;;4971358;28;20669;-39
2021/12/08 07:36:06;;;;;;;4.03;1.53;;;14.70;55.70;15.50;98890.00;;;;4970940;28;20177;-39
2021/12/08 07:38:32;;;;;;;3.63;1.50;;;14.70;55.60;15.50;98902.00;;;;4971426;28;20180;-39
2021/12/08 07:41:06;;;;;;;2.40;1.50;;;14.70;55.50;15.50;98889.00;;;;4969313;28;20169;-38
2021/12/08 07:43:33;;;;;;;3.50;1.63;;;14.70;55.50;15.50;98881.00;;;;4970734;28;20660;-39
2021/12/08 07:46:05;;;;;;;3.47;1.70;;;14.60;55.60;15.50;98882.00;;;;4971217;28;20180;-40
2021/12/08 07:49:16;;;;;;;3.43;1.70;;;14.60;55.50;15.50;98886.00;;;;4971029;28;20208;-39
2021/12/08 07:51:50;;;;;;;3.43;1.87;;;14.60;55.50;15.40;98885.00;;;;4967485;28;20295;-39
2021/12/08 07:54:17;;;;;;;5.10;1.67;;;14.60;55.40;15.40;98904.00;;;;4970957;28;20550;-39
2021/12/08 07:56:45;;;;;;;3.90;1.80;;;14.60;55.40;15.40;98914.00;;;;4971130;28;20173;-39
2021/12/08 07:59:13;;;;;;;2.60;1.50;;;14.50;55.40;15.40;98910.00;;;;4970386;28;20497;-38
2021/12/08 08:01:42;;;;;;;2.63;1.50;;;14.50;55.30;15.40;98907.00;;;;4969911;28;20177;-39
2021/12/08 08:04:10;;;;;;;1.57;1.43;;;14.50;55.40;15.40;98919.00;;;;4970951;28;20292;-38
2021/12/08 08:06:39;;;;;;;3.97;1.70;;;14.50;55.50;15.40;98932.00;;;;4970520;28;20181;-39
2021/12/08 08:09:08;;;;;;;2.70;1.50;;;14.50;55.40;15.40;98923.00;;;;4970530;28;20280;-40
2021/12/08 08:11:41;;;;;;;1.57;1.47;;;14.50;55.40;15.30;98906.00;;;;4968868;28;20201;-40
2021/12/08 08:14:06;;;;;;;2.67;1.60;;;14.40;55.30;15.30;98906.00;;;;4970781;28;20206;-40
2021/12/08 08:16:34;;;;;;;1.60;1.40;;;14.40;55.20;15.30;98912.00;;;;4985581;28;20176;-40
2021/12/08 08:19:06;;;;;;;3.07;1.63;;;14.40;55.40;15.30;98908.00;;;;4970135;28;20180;-39
2021/12/08 08:21:36;;;;;;;2.57;1.70;;;14.40;55.30;15.30;98910.00;;;;4969697;28;20173;-40
2021/12/08 08:24:02;;;;;;;2.37;1.60;;;14.40;55.30;15.30;98909.00;;;;4969542;28;20208;-40
2021/12/08 08:26:29;;;;;;;1.50;1.40;;;14.40;55.30;15.30;98903.00;;;;4969985;28;20197;-40
2021/12/08 08:28:55;;;;;;;2.97;1.60;;;14.30;55.10;15.30;98901.00;;;;4970326;28;20212;-40
2021/12/08 08:31:29;;;;;;;1.60;1.50;;;14.40;55.20;15.20;98924.00;;;;4968733;28;20244;-39
2021/12/08 08:33:55;;;;;;;2.00;1.50;;;14.30;55.10;15.20;98924.00;;;;4968354;28;20239;-40
2021/12/08 08:36:24;;;;;;;1.87;1.50;;;14.30;55.10;15.20;98924.00;;;;4970395;28;20201;-40
2021/12/08 08:38:58;;;;;;;1.70;1.50;;;14.30;55.20;15.20;98913.00;;;;4969556;28;20413;-40
2021/12/08 08:41:30;;;;;;;2.07;1.60;;;14.30;55.20;15.20;98920.00;;;;4969819;28;20157;-40
2021/12/08 08:43:58;;;;;;;3.30;1.50;;;14.30;55.10;15.20;98916.00;;;;4970082;28;20200;-39
2021/12/08 08:46:28;;;;;;;2.50;1.50;;;14.30;55.30;15.20;98915.00;;;;4970492;28;20189;-40
2021/12/08 08:48:58;;;;;;;1.70;1.60;;;14.20;55.00;15.10;98911.00;;;;4969018;28;20213;-40
2021/12/08 08:51:32;;;;;;;2.07;1.67;;;14.20;55.10;15.10;98905.00;;;;4969340;28;20247;-40
2021/12/08 08:54:02;;;;;;;1.87;1.60;;;14.20;55.10;15.10;98910.00;;;;4969632;28;20204;-39
2021/12/08 08:56:33;;;;;;;1.77;1.60;;;14.30;55.20;15.10;98915.00;;;;4970013;28;20173;-40
2021/12/08 08:59:12;;;;;;;2.77;1.70;;;14.20;55.00;15.10;98916.00;;;;4968441;28;20676;-40
2021/12/08 09:01:43;;;;;;;1.70;1.60;;;14.20;55.20;15.10;98938.00;;;;4967978;28;20192;-40
2021/12/08 09:04:18;;;;;;;1.90;1.60;;;14.20;55.00;15.10;98929.00;;;;4969444;28;20624;-40
2021/12/08 09:06:46;;;;;;;2.80;1.53;;;14.20;55.00;15.00;98927.00;;;;4969444;28;20264;-40
2021/12/08 09:09:16;;;;;;;1.60;1.47;;;14.20;55.00;15.00;98931.00;;;;4969116;28;20281;-40
2021/12/08 09:12:03;;;;;;;2.27;1.50;;;14.10;55.00;15.00;98937.00;;;;4969432;28;20201;-40
2021/12/08 09:15:00;;;;;;;1.43;1.33;;;14.10;55.00;15.00;98947.00;;;;4969758;28;20636;-40
2021/12/08 09:17:33;;;;;;;2.13;1.63;;;14.10;55.00;15.00;98932.00;;;;4969775;28;20173;-40
2021/12/08 09:20:28;;;;;;;2.00;1.47;;;14.10;55.00;15.00;98946.00;;;;4969038;28;20169;-40
2021/12/08 09:23:21;;;;;;;1.47;1.30;;;14.10;55.00;15.00;98955.00;;;;4966146;28;20284;-40
2021/12/08 09:26:02;;;;;;;2.30;1.67;;;14.10;55.00;14.90;98952.00;;;;4955220;28;20388;-40
2021/12/08 09:28:35;;;;;;;2.63;1.70;;;14.00;55.10;14.90;98966.00;;;;4949657;28;20166;-40
2021/12/08 09:31:10;;;;;;;2.07;1.70;;;14.00;55.00;14.90;98965.00;;;;4949174;28;20209;-39
2021/12/08 09:33:45;;;;;;;2.00;1.57;;;14.00;55.10;14.90;98962.00;;;;4958611;28;20225;-40
2021/12/08 09:36:14;;;;;;;1.97;1.60;;;14.00;55.10;14.90;98954.00;;;;4970748;28;20223;-40
2021/12/08 09:38:50;;;;;;;1.70;1.60;;;14.00;55.10;14.60;98949.00;;;;4970807;28;20640;-40
2021/12/08 09:41:27;;;;;;;1.77;1.67;;;14.00;55.10;14.90;98949.00;;;;4970223;28;20192;-40
2021/12/08 09:44:04;;;;;;;1.87;1.60;;;14.00;55.10;14.80;98954.00;;;;4969879;28;20231;-40
2021/12/08 09:46:35;;;;;;;2.10;1.83;;;14.00;55.20;14.80;98954.00;;;;4970719;28;20192;-40
2021/12/08 09:49:01;;;;;;;1.60;1.50;;;13.90;55.10;14.80;98957.00;;;;4968645;28;20589;-39
2021/12/08 09:51:27;;;;;;;1.50;1.40;;;13.90;55.10;14.80;98967.00;;;;4965314;28;20625;-40
2021/12/08 09:53:53;;;;;;;1.70;1.60;;;13.90;55.20;14.80;98976.00;;;;4970175;28;20639;-40
2021/12/08 09:56:19;;;;;;;1.67;1.57;;;13.90;55.00;14.80;98976.00;;;;4970346;28;20179;-39
2021/12/08 09:58:45;;;;;;;1.83;1.53;;;13.90;55.10;14.80;98972.00;;;;4969739;28;20268;-40
2021/12/08 10:01:15;;;;;;;1.60;1.50;;;13.90;55.10;14.80;98964.00;;;;4969857;28;20181;-40
2021/12/08 10:03:41;;;;;;;1.60;1.50;;;13.90;55.10;14.80;98975.00;;;;4969580;28;20327;-40
2021/12/08 10:06:08;;;;;;;2.00;1.67;;;13.90;55.10;14.80;98980.00;;;;4969974;28;20183;-40
2021/12/08 10:08:34;;;;;;;1.63;1.53;;;13.90;55.10;14.80;98988.00;;;;4969403;28;20169;-40
2021/12/08 10:10:59;;;;;;;1.87;1.50;;;13.90;55.30;14.80;98980.00;;;;4969503;28;20212;-40
2021/12/08 10:13:25;;;;;;;2.50;1.53;;;13.90;55.20;14.70;98989.00;;;;4969103;28;20231;-39
2021/12/08 10:15:51;;;;;;;1.83;1.70;;;13.90;55.10;14.70;98997.00;;;;4969796;28;20212;-40
2021/12/08 10:18:17;;;;;;;2.83;1.70;;;13.90;55.20;14.70;98983.00;;;;4969943;28;20161;-40
2021/12/08 10:20:46;;;;;;;1.67;1.57;;;13.80;55.20;14.70;98987.00;;;;4969651;28;20247;-40
2021/12/08 10:23:30;;;;;;;1.63;1.53;;;13.80;55.10;14.70;98984.00;;;;4969239;28;20287;-40
2021/12/08 10:26:05;;;;;;;2.70;1.60;;;13.80;55.20;14.80;98999.00;;;;4968679;28;20635;-40
2021/12/08 10:28:39;;;;;;;2.10;1.70;;;13.90;55.30;14.80;99007.00;;;;4969700;28;20169;-39
2021/12/08 10:31:15;;;;;;;1.60;1.50;;;14.20;55.30;14.90;99004.00;;;;4963525;28;20205;-39
2021/12/08 10:34:01;;;;;;;1.67;1.57;;;14.40;55.10;15.00;99008.00;;;;4967441;28;20208;-40
2021/12/08 10:36:47;;;;;;;1.50;1.40;;;14.70;54.80;15.20;99012.00;;;;4969656;28;20262;-40
2021/12/08 10:39:37;;;;;;;2.33;1.70;;;15.00;54.50;15.40;99007.00;;;;4969744;28;20615;-40
2021/12/08 10:42:26;;;;;;;1.80;1.70;;;15.40;54.20;15.60;99007.00;;;;4969179;28;20719;-40
2021/12/08 10:45:21;;;;;;;1.70;1.60;;;15.50;54.00;15.70;98999.00;;;;4972030;28;20176;-40
2021/12/08 10:47:48;;;;;;;1.60;1.50;;;15.60;53.90;15.90;98985.00;;;;4972517;28;20197;-40
2021/12/08 10:56:19;;;;;;;1.80;1.60;;;15.80;53.90;16.10;98990.00;;;;4972890;28;20594;-40
2021/12/08 10:58:53;;;;;;;2.13;1.70;;;15.80;53.90;16.20;98985.00;;;;4972584;28;20165;-40
2021/12/08 11:01:21;;;;;;;2.07;1.80;;;15.80;53.90;16.20;98978.00;;;;4971613;28;20161;-40
2021/12/08 11:03:49;;;;;;;2.43;1.70;;;15.90;54.10;16.30;98972.00;;;;4972507;28;20189;-39
2021/12/08 11:06:16;;;;;;;1.70;1.60;;;15.90;54.10;16.30;98985.00;;;;4971888;28;20603;-40
2021/12/08 11:08:47;;;;;;;1.70;1.60;;;15.90;54.20;16.30;98978.00;;;;4972636;28;20247;-40
2021/12/08 11:11:20;;;;;;;1.63;1.53;;;15.90;54.20;16.40;98986.00;;;;4972249;28;20239;-40
2021/12/08 11:13:54;;;;;;;1.43;1.23;;;15.80;54.60;16.40;98987.00;;;;4972160;28;20223;-39
2021/12/08 11:16:31;;;;;;;1.93;1.50;;;15.80;54.30;16.40;98992.00;;;;4973004;28;20251;-40
2021/12/08 11:19:13;;;;;;;1.50;1.40;;;15.80;54.50;16.40;98990.00;;;;4972736;28;20685;-40
2021/12/08 11:21:54;;;;;;;2.23;1.70;;;15.80;54.40;16.40;98999.00;;;;4972489;28;20568;-40
2021/12/08 11:24:42;;;;;;;1.73;1.50;;;15.80;54.40;16.40;99002.00;;;;4971991;28;20727;-40
2021/12/08 11:27:08;;;;;;;2.67;1.80;;;15.80;54.40;16.40;99004.00;;;;4972327;28;20153;-40
2021/12/08 11:29:40;;;;;;;2.07;1.53;;;15.80;54.40;16.50;99000.00;;;;4972436;28;20189;-39
2021/12/08 11:32:07;;;;;;;2.30;1.73;;;15.80;54.40;16.50;99002.00;;;;4972309;28;20209;-39
2021/12/08 11:34:42;;;;;;;1.40;1.30;;;15.80;54.50;16.40;99000.00;;;;4972290;28;20644;-40
2021/12/08 11:37:16;;;;;;;1.80;1.70;;;15.80;54.60;16.50;99007.00;;;;4972373;28;20169;-40
2021/12/08 11:39:57;;;;;;;1.57;1.47;;;15.70;54.60;16.40;99006.00;;;;4964072;28;20599;-39
2021/12/08 11:42:25;;;;;;;1.60;1.50;;;15.70;54.80;16.50;98998.00;;;;4953195;28;20397;-39
2021/12/08 11:44:58;;;;;;;1.90;1.67;;;15.70;55.40;16.40;98998.00;;;;4953529;28;20169;-40
2021/12/08 11:47:27;;;;;;;1.70;1.60;;;15.60;54.90;16.40;98997.00;;;;4954024;28;20688;-42
2021/12/08 11:49:59;;;;;;;1.60;1.50;;;15.60;55.50;16.40;99000.00;;;;4954437;28;20354;-39
2021/12/08 11:52:32;;;;;;;1.40;1.30;;;15.60;54.90;16.40;98999.00;;;;4952836;28;20284;-40
2021/12/08 11:55:00;;;;;;;1.87;1.40;;;15.60;55.00;16.40;99000.00;;;;4952892;28;20170;-40
2021/12/08 11:57:39;;;;;;;2.17;1.63;;;15.60;55.00;16.40;99001.00;;;;4958532;28;20247;-40